Strandell, Washington
Current Conditions -  °F | °C
As of 9:28 PM on Monday 26 Jan 2015 (Local Time) from CYXX Reporting Station
Moderate Fog Moderate Fog  
Wind Chill: 41°   Ceiling: 22000
Heat Index: 41°   Visibility: 0.5mi
Dew Point: 41°   Wind: 2mph
Humidity: 100%   Direction: NA
Pressure: 29.95"   Gusts: NA
Location:  48.9068°N, 122.295°W
Report Text: CYXX 270528Z VRB02KT 1/2SM R07/2600FT/N FG BKN220 05/05 A2995 RMK FG2CI4 SLP144
Loading
Personal Weather Stations






























Interactive Weather Map New forecast layout! Learn more

10-Day Weather Forecast

Advertisements
Track Severe Weather on mobile